Paxoi — A8TU5 — position and weather

sailwx.info

Track history (hours):
 
Tides and Currents Weather Stations Pressure Air Temp Water Temp Dewpoint Dewpoint Depression Visibility Wind Speed Wind Dir Waves Ship Positions

Paxoi

Last reported at 2018-Feb-22 07:02 UTC. Time now 2018-Feb-22 09:26 UTC.
Position N 36°06' W 005°22'.

Length 102 m; draft 7.3 m.

Type: Tanker. MMSI: 636014431.

Date/timePositionNaut miles runAvg speedWind from/ knotsBaromVisibWave heightAir tempDewpointWater temp
2018-Feb-22 07:02N 36°06' W 005°22'0 0.0
2018-Feb-22 06:56N 36°06' W 005°22'0 0.1
2018-Feb-22 06:26N 36°06' W 005°22'0 0.0
2018-Feb-22 05:50N 36°06' W 005°22'0 0.0
2018-Feb-22 05:23N 36°06' W 005°22'0 0.0
2018-Feb-22 03:47N 36°06' W 005°22'0 0.1
2018-Feb-22 03:17N 36°06' W 005°22'0 0.1
2018-Feb-22 02:59N 36°06' W 005°22'0 0.2
2018-Feb-22 02:17N 36°06' W 005°22'0 0.4
2018-Feb-22 01:54N 36°06' W 005°22'0 0.1
2018-Feb-22 01:23N 36°06' W 005°22'0 0.2
2018-Feb-22 00:53N 36°06' W 005°22'0 0.1
2018-Feb-22 00:30N 36°07' W 005°22'0 0.2
2018-Feb-21 23:35N 36°06' W 005°22'0 0.5
2018-Feb-21 23:29N 36°06' W 005°22'0 0.1
2018-Feb-21 22:53N 36°06' W 005°22'0 0.0
2018-Feb-21 22:30N 36°06' W 005°22'0 0.0
2018-Feb-21 21:56N 36°06' W 005°22'0 0.0
2018-Feb-21 21:27N 36°06' W 005°22'0 0.3
2018-Feb-21 20:59N 36°06' W 005°21'3 5.5
2018-Feb-21 20:30N 36°09' W 005°23'1 1.3
2018-Feb-21 19:49N 36°09' W 005°22'0 0.1
2018-Feb-21 19:30N 36°09' W 005°23'0 0.0
2018-Feb-21 19:00N 36°09' W 005°23'0 0.0
2018-Feb-21 16:36N 36°09' W 005°22'2 0.2
2018-Feb-21 06:58N 36°08' W 005°22'1 1.2
2018-Feb-21 06:30N 36°08' W 005°22'1 0.6
2018-Feb-21 04:32N 36°09' W 005°22'0 0.0
2018-Feb-21 04:26N 36°09' W 005°22'0 0.0
2018-Feb-21 03:38N 36°09' W 005°22'0 0.0
2018-Feb-21 03:20N 36°09' W 005°22'0 0.1
2018-Feb-21 02:57N 36°09' W 005°23'0 0.0
2018-Feb-21 02:20N 36°09' W 005°23'0 0.0
2018-Feb-21 01:56N 36°09' W 005°23'0 0.1
2018-Feb-21 01:26N 36°09' W 005°22'0 0.1
2018-Feb-20 23:44N 36°09' W 005°22'0 0.1
2018-Feb-20 23:26N 36°09' W 005°22'0 0.1
2018-Feb-20 22:56N 36°09' W 005°22'0 0.1
2018-Feb-20 22:29N 36°09' W 005°22'0 0.0
2018-Feb-20 21:03N 36°09' W 005°22'0 0.0
2018-Feb-20 19:56N 36°09' W 005°22'0 0.1
2018-Feb-20 19:21N 36°09' W 005°22'0 0.1
2018-Feb-20 18:58N 36°09' W 005°22'0 0.0
2018-Feb-20 16:32N 36°09' W 005°22'0 0.4
2018-Feb-20 16:13N 36°09' W 005°23'1 6.2
2018-Feb-20 16:01N 36°08' W 005°22'1 0.1
2018-Feb-19 23:52N 36°09' W 005°22'0 0.0
2018-Feb-19 23:28N 36°09' W 005°22'0 0.0
2018-Feb-19 22:52N 36°09' W 005°22'  
2018-Feb-15 20:27N 36°07' W 005°22'0 0.3
2018-Feb-15 20:00N 36°07' W 005°22'1 2.3
2018-Feb-15 19:29N 36°08' W 005°22'1 0.1
2018-Feb-15 06:48N 36°09' W 005°22'0 0.0
2018-Feb-14 06:42N 36°09' W 005°22'0 0.0
2018-Feb-14 06:30N 36°09' W 005°22'3 0.6
2018-Feb-14 00:52N 36°06' W 005°22'411.7
2018-Feb-14 00:30N 36°02' W 005°23'612.4
2018-Feb-14 00:00N 35°57' W 005°28'2 0.1
2018-Feb-13 13:38N 35°58' W 005°29'4 9.2
2018-Feb-13 13:10N 36°00' W 005°24'2 9.8
2018-Feb-13 13:00N 36°02' W 005°23'6 0.4
2018-Feb-12 22:37N 36°08' W 005°23'0 0.2
2018-Feb-12 22:30N 36°08' W 005°23'1 1.9
2018-Feb-12 22:00N 36°09' W 005°23'1 0.1
2018-Feb-12 12:16N 36°08' W 005°23'0 1.4
2018-Feb-12 12:00N 36°08' W 005°23'  
Track history (hours):
 
Tides and Currents Weather Stations Pressure Air Temp Water Temp Dewpoint Dewpoint Depression Visibility Wind Speed Wind Dir Waves Ship Positions

Paxoi

Last reported at 2018-Feb-22 07:02 UTC. Time now 2018-Feb-22 09:26 UTC.
Position N 36°06' W 005°22'.

Length 102 m; draft 7.3 m.

Type: Tanker. MMSI: 636014431.

Date/timePositionNaut miles runAvg speedWind from/ knotsBaromVisibWave heightAir tempDewpointWater temp
2018-Feb-22 07:02N 36°06' W 005°22'0 0.0
2018-Feb-22 06:56N 36°06' W 005°22'0 0.1
2018-Feb-22 06:26N 36°06' W 005°22'0 0.0
2018-Feb-22 05:50N 36°06' W 005°22'0 0.0
2018-Feb-22 05:23N 36°06' W 005°22'0 0.0
2018-Feb-22 03:47N 36°06' W 005°22'0 0.1
2018-Feb-22 03:17N 36°06' W 005°22'0 0.1
2018-Feb-22 02:59N 36°06' W 005°22'0 0.2
2018-Feb-22 02:17N 36°06' W 005°22'0 0.4
2018-Feb-22 01:54N 36°06' W 005°22'0 0.1
2018-Feb-22 01:23N 36°06' W 005°22'0 0.2
2018-Feb-22 00:53N 36°06' W 005°22'0 0.1
2018-Feb-22 00:30N 36°07' W 005°22'0 0.2
2018-Feb-21 23:35N 36°06' W 005°22'0 0.5
2018-Feb-21 23:29N 36°06' W 005°22'0 0.1
2018-Feb-21 22:53N 36°06' W 005°22'0 0.0
2018-Feb-21 22:30N 36°06' W 005°22'0 0.0
2018-Feb-21 21:56N 36°06' W 005°22'0 0.0
2018-Feb-21 21:27N 36°06' W 005°22'0 0.3
2018-Feb-21 20:59N 36°06' W 005°21'3 5.5
2018-Feb-21 20:30N 36°09' W 005°23'1 1.3
2018-Feb-21 19:49N 36°09' W 005°22'0 0.1
2018-Feb-21 19:30N 36°09' W 005°23'0 0.0
2018-Feb-21 19:00N 36°09' W 005°23'0 0.0
2018-Feb-21 16:36N 36°09' W 005°22'2 0.2
2018-Feb-21 06:58N 36°08' W 005°22'1 1.2
2018-Feb-21 06:30N 36°08' W 005°22'1 0.6
2018-Feb-21 04:32N 36°09' W 005°22'0 0.0
2018-Feb-21 04:26N 36°09' W 005°22'0 0.0
2018-Feb-21 03:38N 36°09' W 005°22'0 0.0
2018-Feb-21 03:20N 36°09' W 005°22'0 0.1
2018-Feb-21 02:57N 36°09' W 005°23'0 0.0
2018-Feb-21 02:20N 36°09' W 005°23'0 0.0
2018-Feb-21 01:56N 36°09' W 005°23'0 0.1
2018-Feb-21 01:26N 36°09' W 005°22'0 0.1
2018-Feb-20 23:44N 36°09' W 005°22'0 0.1
2018-Feb-20 23:26N 36°09' W 005°22'0 0.1
2018-Feb-20 22:56N 36°09' W 005°22'0 0.1
2018-Feb-20 22:29N 36°09' W 005°22'0 0.0
2018-Feb-20 21:03N 36°09' W 005°22'0 0.0
2018-Feb-20 19:56N 36°09' W 005°22'0 0.1
2018-Feb-20 19:21N 36°09' W 005°22'0 0.1
2018-Feb-20 18:58N 36°09' W 005°22'0 0.0
2018-Feb-20 16:32N 36°09' W 005°22'0 0.4
2018-Feb-20 16:13N 36°09' W 005°23'1 6.2
2018-Feb-20 16:01N 36°08' W 005°22'1 0.1
2018-Feb-19 23:52N 36°09' W 005°22'0 0.0
2018-Feb-19 23:28N 36°09' W 005°22'0 0.0
2018-Feb-19 22:52N 36°09' W 005°22'  
2018-Feb-15 20:27N 36°07' W 005°22'0 0.3
2018-Feb-15 20:00N 36°07' W 005°22'1 2.3
2018-Feb-15 19:29N 36°08' W 005°22'1 0.1
2018-Feb-15 06:48N 36°09' W 005°22'0 0.0
2018-Feb-14 06:42N 36°09' W 005°22'0 0.0
2018-Feb-14 06:30N 36°09' W 005°22'3 0.6
2018-Feb-14 00:52N 36°06' W 005°22'411.7
2018-Feb-14 00:30N 36°02' W 005°23'612.4
2018-Feb-14 00:00N 35°57' W 005°28'2 0.1
2018-Feb-13 13:38N 35°58' W 005°29'4 9.2
2018-Feb-13 13:10N 36°00' W 005°24'2 9.8
2018-Feb-13 13:00N 36°02' W 005°23'6 0.4
2018-Feb-12 22:37N 36°08' W 005°23'0 0.2
2018-Feb-12 22:30N 36°08' W 005°23'1 1.9
2018-Feb-12 22:00N 36°09' W 005°23'1 0.1
2018-Feb-12 12:16N 36°08' W 005°23'0 1.4
2018-Feb-12 12:00N 36°08' W 005°23'  

Dump ship's entire track history